sensor_id;sensor_type;location;lat;lon;timestamp;P1;durP1;ratioP1;P2;durP2;ratioP2
12110;SDS011;6119;52.372;8.990;2024-03-23T00:54:28;18.33;;;7.57;;
12110;SDS011;6119;52.372;8.990;2024-03-23T00:57:13;16.73;;;8.07;;
12110;SDS011;6119;52.372;8.990;2024-03-23T00:59:58;16.93;;;8.17;;
12110;SDS011;6119;52.372;8.990;2024-03-23T01:02:43;17.27;;;8.17;;
12110;SDS011;6119;52.372;8.990;2024-03-23T01:05:29;13.57;;;7.77;;
12110;SDS011;6119;52.372;8.990;2024-03-23T01:08:13;17.27;;;7.80;;
12110;SDS011;6119;52.372;8.990;2024-03-23T01:11:01;16.53;;;8.67;;
12110;SDS011;6119;52.372;8.990;2024-03-23T01:13:46;14.67;;;8.03;;
12110;SDS011;6119;52.372;8.990;2024-03-23T01:16:32;13.53;;;7.27;;
12110;SDS011;6119;52.372;8.990;2024-03-23T01:19:17;21.10;;;8.03;;
12110;SDS011;6119;52.372;8.990;2024-03-23T01:22:02;22.23;;;8.40;;
12110;SDS011;6119;52.372;8.990;2024-03-23T01:24:47;15.47;;;7.60;;
12110;SDS011;6119;52.372;8.990;2024-03-23T01:27:34;19.00;;;7.87;;
12110;SDS011;6119;52.372;8.990;2024-03-23T01:30:20;21.63;;;8.20;;
12110;SDS011;6119;52.372;8.990;2024-03-23T01:33:04;19.10;;;8.67;;
12110;SDS011;6119;52.372;8.990;2024-03-23T01:35:50;19.00;;;8.53;;
12110;SDS011;6119;52.372;8.990;2024-03-23T01:38:35;16.83;;;8.73;;
12110;SDS011;6119;52.372;8.990;2024-03-23T01:41:21;17.10;;;7.83;;
12110;SDS011;6119;52.372;8.990;2024-03-23T01:44:08;19.50;;;8.13;;
12110;SDS011;6119;52.372;8.990;2024-03-23T01:46:53;20.73;;;6.93;;
12110;SDS011;6119;52.372;8.990;2024-03-23T01:49:38;14.47;;;7.10;;
12110;SDS011;6119;52.372;8.990;2024-03-23T01:52:23;19.67;;;7.90;;
12110;SDS011;6119;52.372;8.990;2024-03-23T01:55:09;19.17;;;7.37;;
12110;SDS011;6119;52.372;8.990;2024-03-23T01:57:54;15.27;;;7.47;;
12110;SDS011;6119;52.372;8.990;2024-03-23T02:00:43;14.10;;;6.63;;
12110;SDS011;6119;52.372;8.990;2024-03-23T02:03:28;12.63;;;5.97;;
12110;SDS011;6119;52.372;8.990;2024-03-23T02:06:14;15.80;;;6.33;;
12110;SDS011;6119;52.372;8.990;2024-03-23T02:09:00;14.57;;;6.37;;
12110;SDS011;6119;52.372;8.990;2024-03-23T02:11:45;14.83;;;6.13;;
12110;SDS011;6119;52.372;8.990;2024-03-23T02:14:31;16.33;;;6.50;;
12110;SDS011;6119;52.372;8.990;2024-03-23T02:17:17;14.00;;;6.37;;
12110;SDS011;6119;52.372;8.990;2024-03-23T02:20:03;15.40;;;5.57;;
12110;SDS011;6119;52.372;8.990;2024-03-23T02:22:52;17.17;;;6.20;;
12110;SDS011;6119;52.372;8.990;2024-03-23T02:25:38;13.53;;;5.60;;
12110;SDS011;6119;52.372;8.990;2024-03-23T02:28:23;12.23;;;5.27;;
12110;SDS011;6119;52.372;8.990;2024-03-23T02:31:09;15.47;;;6.03;;
12110;SDS011;6119;52.372;8.990;2024-03-23T02:33:54;13.70;;;5.37;;
12110;SDS011;6119;52.372;8.990;2024-03-23T02:36:40;9.33;;;4.57;;
12110;SDS011;6119;52.372;8.990;2024-03-23T02:39:26;19.37;;;5.67;;
12110;SDS011;6119;52.372;8.990;2024-03-23T02:42:11;12.33;;;4.30;;
12110;SDS011;6119;52.372;8.990;2024-03-23T02:44:57;11.33;;;4.67;;
12110;SDS011;6119;52.372;8.990;2024-03-23T02:47:44;9.70;;;4.43;;
12110;SDS011;6119;52.372;8.990;2024-03-23T02:50:29;9.47;;;4.67;;
12110;SDS011;6119;52.372;8.990;2024-03-23T02:53:14;10.83;;;4.13;;
12110;SDS011;6119;52.372;8.990;2024-03-23T02:56:01;12.33;;;4.60;;
12110;SDS011;6119;52.372;8.990;2024-03-23T02:58:47;12.50;;;4.50;;
12110;SDS011;6119;52.372;8.990;2024-03-23T03:01:31;16.57;;;4.73;;
12110;SDS011;6119;52.372;8.990;2024-03-23T03:04:17;15.57;;;4.33;;
12110;SDS011;6119;52.372;8.990;2024-03-23T03:07:02;13.83;;;4.70;;
12110;SDS011;6119;52.372;8.990;2024-03-23T03:09:48;13.90;;;4.90;;
12110;SDS011;6119;52.372;8.990;2024-03-23T03:12:34;13.60;;;4.70;;
12110;SDS011;6119;52.372;8.990;2024-03-23T03:15:20;11.07;;;5.00;;
12110;SDS011;6119;52.372;8.990;2024-03-23T03:18:04;12.10;;;5.33;;
12110;SDS011;6119;52.372;8.990;2024-03-23T03:20:53;14.90;;;5.23;;
12110;SDS011;6119;52.372;8.990;2024-03-23T03:23:38;13.33;;;5.53;;
12110;SDS011;6119;52.372;8.990;2024-03-23T03:26:25;14.23;;;4.73;;
12110;SDS011;6119;52.372;8.990;2024-03-23T03:29:11;17.93;;;5.20;;
12110;SDS011;6119;52.372;8.990;2024-03-23T03:31:56;13.10;;;4.80;;
12110;SDS011;6119;52.372;8.990;2024-03-23T03:34:43;13.93;;;4.63;;
12110;SDS011;6119;52.372;8.990;2024-03-23T03:37:28;11.07;;;4.10;;
12110;SDS011;6119;52.372;8.990;2024-03-23T03:40:14;10.90;;;4.43;;
12110;SDS011;6119;52.372;8.990;2024-03-23T03:42:59;15.70;;;4.20;;
12110;SDS011;6119;52.372;8.990;2024-03-23T03:45:52;11.70;;;4.60;;
12110;SDS011;6119;52.372;8.990;2024-03-23T03:48:37;11.10;;;4.27;;
12110;SDS011;6119;52.372;8.990;2024-03-23T03:51:23;19.37;;;4.37;;
12110;SDS011;6119;52.372;8.990;2024-03-23T03:54:08;18.33;;;4.93;;
12110;SDS011;6119;52.372;8.990;2024-03-23T03:56:53;9.87;;;4.47;;
12110;SDS011;6119;52.372;8.990;2024-03-23T03:59:38;12.90;;;4.73;;
12110;SDS011;6119;52.372;8.990;2024-03-23T04:02:25;15.70;;;5.87;;
12110;SDS011;6119;52.372;8.990;2024-03-23T04:05:10;16.27;;;5.60;;
12110;SDS011;6119;52.372;8.990;2024-03-23T04:07:56;10.90;;;4.40;;
12110;SDS011;6119;52.372;8.990;2024-03-23T04:10:41;12.77;;;4.60;;
12110;SDS011;6119;52.372;8.990;2024-03-23T04:13:26;16.27;;;4.60;;
12110;SDS011;6119;52.372;8.990;2024-03-23T04:16:11;11.27;;;4.60;;
12110;SDS011;6119;52.372;8.990;2024-03-23T04:18:58;12.03;;;4.83;;
12110;SDS011;6119;52.372;8.990;2024-03-23T04:21:43;15.03;;;4.93;;
12110;SDS011;6119;52.372;8.990;2024-03-23T04:24:29;14.13;;;4.97;;
12110;SDS011;6119;52.372;8.990;2024-03-23T04:27:13;15.03;;;5.10;;
12110;SDS011;6119;52.372;8.990;2024-03-23T04:29:59;12.23;;;4.50;;
12110;SDS011;6119;52.372;8.990;2024-03-23T04:32:45;10.10;;;4.60;;
12110;SDS011;6119;52.372;8.990;2024-03-23T04:35:33;14.10;;;5.33;;
12110;SDS011;6119;52.372;8.990;2024-03-23T04:38:17;15.47;;;5.03;;
12110;SDS011;6119;52.372;8.990;2024-03-23T04:41:03;14.10;;;4.77;;
12110;SDS011;6119;52.372;8.990;2024-03-23T04:43:49;17.77;;;5.53;;
12110;SDS011;6119;52.372;8.990;2024-03-23T04:46:35;11.07;;;4.80;;
12110;SDS011;6119;52.372;8.990;2024-03-23T04:49:21;12.50;;;4.73;;
12110;SDS011;6119;52.372;8.990;2024-03-23T04:52:08;11.93;;;4.83;;
12110;SDS011;6119;52.372;8.990;2024-03-23T04:54:54;15.77;;;5.03;;
12110;SDS011;6119;52.372;8.990;2024-03-23T04:57:39;10.33;;;4.93;;
12110;SDS011;6119;52.372;8.990;2024-03-23T05:00:25;15.80;;;5.53;;
12110;SDS011;6119;52.372;8.990;2024-03-23T05:03:10;10.57;;;5.43;;
12110;SDS011;6119;52.372;8.990;2024-03-23T05:05:56;14.07;;;5.73;;
12110;SDS011;6119;52.372;8.990;2024-03-23T05:08:42;17.73;;;5.10;;
12110;SDS011;6119;52.372;8.990;2024-03-23T05:11:28;12.70;;;5.50;;
12110;SDS011;6119;52.372;8.990;2024-03-23T05:14:12;16.17;;;5.47;;
12110;SDS011;6119;52.372;8.990;2024-03-23T05:16:58;17.30;;;5.33;;
12110;SDS011;6119;52.372;8.990;2024-03-23T05:19:43;17.73;;;5.67;;
12110;SDS011;6119;52.372;8.990;2024-03-23T05:22:29;20.53;;;6.23;;
12110;SDS011;6119;52.372;8.990;2024-03-23T05:25:16;18.13;;;6.63;;
12110;SDS011;6119;52.372;8.990;2024-03-23T05:28:01;20.07;;;6.70;;
12110;SDS011;6119;52.372;8.990;2024-03-23T05:30:49;18.20;;;6.20;;
12110;SDS011;6119;52.372;8.990;2024-03-23T05:33:36;20.60;;;6.90;;
12110;SDS011;6119;52.372;8.990;2024-03-23T05:36:22;22.63;;;7.30;;
12110;SDS011;6119;52.372;8.990;2024-03-23T05:39:08;20.67;;;6.60;;
12110;SDS011;6119;52.372;8.990;2024-03-23T05:41:54;23.43;;;6.47;;
12110;SDS011;6119;52.372;8.990;2024-03-23T05:44:40;16.40;;;6.57;;
12110;SDS011;6119;52.372;8.990;2024-03-23T05:47:27;21.00;;;7.77;;
12110;SDS011;6119;52.372;8.990;2024-03-23T05:50:12;21.53;;;7.40;;
12110;SDS011;6119;52.372;8.990;2024-03-23T05:52:57;15.87;;;6.83;;
12110;SDS011;6119;52.372;8.990;2024-03-23T05:55:44;22.10;;;7.77;;
12110;SDS011;6119;52.372;8.990;2024-03-23T05:58:30;21.83;;;7.53;;
12110;SDS011;6119;52.372;8.990;2024-03-23T06:01:16;27.90;;;8.40;;
12110;SDS011;6119;52.372;8.990;2024-03-23T06:04:01;22.17;;;7.30;;
12110;SDS011;6119;52.372;8.990;2024-03-23T06:06:47;22.50;;;7.70;;
12110;SDS011;6119;52.372;8.990;2024-03-23T06:09:32;25.80;;;7.70;;
12110;SDS011;6119;52.372;8.990;2024-03-23T06:12:18;16.73;;;7.37;;
12110;SDS011;6119;52.372;8.990;2024-03-23T06:15:04;17.13;;;7.10;;
12110;SDS011;6119;52.372;8.990;2024-03-23T06:17:54;21.87;;;7.87;;
12110;SDS011;6119;52.372;8.990;2024-03-23T06:20:39;24.50;;;8.83;;
12110;SDS011;6119;52.372;8.990;2024-03-23T06:23:24;19.70;;;7.73;;
12110;SDS011;6119;52.372;8.990;2024-03-23T06:26:09;20.03;;;8.13;;
12110;SDS011;6119;52.372;8.990;2024-03-23T06:28:55;19.90;;;7.83;;
12110;SDS011;6119;52.372;8.990;2024-03-23T06:31:42;24.13;;;8.43;;
12110;SDS011;6119;52.372;8.990;2024-03-23T06:34:28;25.37;;;7.57;;
12110;SDS011;6119;52.372;8.990;2024-03-23T06:37:14;20.17;;;7.43;;
12110;SDS011;6119;52.372;8.990;2024-03-23T06:39:58;18.73;;;7.40;;
12110;SDS011;6119;52.372;8.990;2024-03-23T06:42:44;16.97;;;7.53;;
12110;SDS011;6119;52.372;8.990;2024-03-23T06:45:29;19.23;;;7.13;;
12110;SDS011;6119;52.372;8.990;2024-03-23T06:48:16;26.53;;;7.90;;
12110;SDS011;6119;52.372;8.990;2024-03-23T06:51:01;24.50;;;7.87;;
12110;SDS011;6119;52.372;8.990;2024-03-23T06:53:46;15.20;;;6.23;;
12110;SDS011;6119;52.372;8.990;2024-03-23T06:56:31;17.70;;;6.97;;
12110;SDS011;6119;52.372;8.990;2024-03-23T06:59:17;19.73;;;7.27;;
12110;SDS011;6119;52.372;8.990;2024-03-23T07:02:02;23.47;;;6.83;;
12110;SDS011;6119;52.372;8.990;2024-03-23T07:04:49;14.47;;;6.63;;
12110;SDS011;6119;52.372;8.990;2024-03-23T07:07:33;19.30;;;6.60;;
12110;SDS011;6119;52.372;8.990;2024-03-23T07:10:19;15.87;;;6.83;;
12110;SDS011;6119;52.372;8.990;2024-03-23T07:13:04;16.97;;;6.50;;
12110;SDS011;6119;52.372;8.990;2024-03-23T07:15:53;18.37;;;5.97;;
12110;SDS011;6119;52.372;8.990;2024-03-23T07:18:39;28.90;;;6.53;;
12110;SDS011;6119;52.372;8.990;2024-03-23T07:21:26;17.17;;;6.67;;
12110;SDS011;6119;52.372;8.990;2024-03-23T07:24:11;19.97;;;6.80;;
12110;SDS011;6119;52.372;8.990;2024-03-23T07:26:57;17.60;;;6.13;;
12110;SDS011;6119;52.372;8.990;2024-03-23T07:29:42;18.10;;;5.87;;
12110;SDS011;6119;52.372;8.990;2024-03-23T07:32:28;27.10;;;6.37;;
12110;SDS011;6119;52.372;8.990;2024-03-23T07:35:12;22.63;;;7.20;;
12110;SDS011;6119;52.372;8.990;2024-03-23T07:37:59;16.90;;;6.17;;
12110;SDS011;6119;52.372;8.990;2024-03-23T07:40:49;23.10;;;6.70;;
12110;SDS011;6119;52.372;8.990;2024-03-23T07:43:40;20.80;;;6.33;;
12110;SDS011;6119;52.372;8.990;2024-03-23T07:46:25;15.87;;;6.43;;
12110;SDS011;6119;52.372;8.990;2024-03-23T07:49:11;17.70;;;6.63;;
12110;SDS011;6119;52.372;8.990;2024-03-23T07:51:56;22.17;;;6.33;;
12110;SDS011;6119;52.372;8.990;2024-03-23T07:54:43;16.00;;;7.00;;
12110;SDS011;6119;52.372;8.990;2024-03-23T07:57:27;10.80;;;6.33;;
12110;SDS011;6119;52.372;8.990;2024-03-23T08:00:13;18.53;;;7.13;;
12110;SDS011;6119;52.372;8.990;2024-03-23T08:02:58;26.67;;;6.43;;
12110;SDS011;6119;52.372;8.990;2024-03-23T08:05:44;20.23;;;6.13;;
12110;SDS011;6119;52.372;8.990;2024-03-23T08:08:29;24.23;;;5.53;;
12110;SDS011;6119;52.372;8.990;2024-03-23T08:11:16;17.67;;;6.50;;
12110;SDS011;6119;52.372;8.990;2024-03-23T08:14:02;16.27;;;5.87;;
12110;SDS011;6119;52.372;8.990;2024-03-23T08:16:48;13.67;;;5.60;;
12110;SDS011;6119;52.372;8.990;2024-03-23T08:19:35;15.70;;;4.90;;
12110;SDS011;6119;52.372;8.990;2024-03-23T08:22:20;15.70;;;5.90;;
12110;SDS011;6119;52.372;8.990;2024-03-23T08:25:06;16.00;;;4.70;;
12110;SDS011;6119;52.372;8.990;2024-03-23T08:27:52;14.77;;;3.97;;
12110;SDS011;6119;52.372;8.990;2024-03-23T08:30:38;14.73;;;5.33;;
12110;SDS011;6119;52.372;8.990;2024-03-23T08:33:23;14.67;;;5.10;;
12110;SDS011;6119;52.372;8.990;2024-03-23T08:36:09;12.17;;;4.37;;
12110;SDS011;6119;52.372;8.990;2024-03-23T08:38:56;13.97;;;5.93;;
12110;SDS011;6119;52.372;8.990;2024-03-23T08:41:41;20.80;;;5.37;;
12110;SDS011;6119;52.372;8.990;2024-03-23T08:44:31;19.73;;;5.20;;
12110;SDS011;6119;52.372;8.990;2024-03-23T08:47:16;10.63;;;4.27;;
12110;SDS011;6119;52.372;8.990;2024-03-23T08:50:01;12.53;;;4.30;;
12110;SDS011;6119;52.372;8.990;2024-03-23T08:52:48;17.27;;;4.30;;
12110;SDS011;6119;52.372;8.990;2024-03-23T08:55:35;16.37;;;4.63;;
12110;SDS011;6119;52.372;8.990;2024-03-23T08:58:21;15.10;;;4.73;;
12110;SDS011;6119;52.372;8.990;2024-03-23T09:01:10;11.97;;;5.20;;
12110;SDS011;6119;52.372;8.990;2024-03-23T09:03:57;11.17;;;4.30;;
12110;SDS011;6119;52.372;8.990;2024-03-23T09:06:42;9.93;;;4.30;;
12110;SDS011;6119;52.372;8.990;2024-03-23T09:09:27;10.70;;;3.10;;
12110;SDS011;6119;52.372;8.990;2024-03-23T09:12:12;13.00;;;3.73;;
12110;SDS011;6119;52.372;8.990;2024-03-23T09:14:58;11.70;;;2.97;;
12110;SDS011;6119;52.372;8.990;2024-03-23T09:17:44;14.10;;;3.27;;
12110;SDS011;6119;52.372;8.990;2024-03-23T09:20:32;11.70;;;3.53;;
12110;SDS011;6119;52.372;8.990;2024-03-23T09:23:17;9.60;;;4.27;;
12110;SDS011;6119;52.372;8.990;2024-03-23T09:26:03;12.60;;;3.43;;
12110;SDS011;6119;52.372;8.990;2024-03-23T09:28:48;14.57;;;3.57;;
12110;SDS011;6119;52.372;8.990;2024-03-23T09:31:34;10.50;;;3.43;;
12110;SDS011;6119;52.372;8.990;2024-03-23T09:34:20;10.03;;;2.93;;
12110;SDS011;6119;52.372;8.990;2024-03-23T09:37:05;10.17;;;3.33;;
12110;SDS011;6119;52.372;8.990;2024-03-23T09:39:50;14.07;;;4.10;;
12110;SDS011;6119;52.372;8.990;2024-03-23T09:42:36;7.03;;;3.07;;
12110;SDS011;6119;52.372;8.990;2024-03-23T09:45:22;5.10;;;2.77;;
12110;SDS011;6119;52.372;8.990;2024-03-23T09:48:12;7.63;;;2.57;;
12110;SDS011;6119;52.372;8.990;2024-03-23T09:50:58;17.33;;;3.60;;
12110;SDS011;6119;52.372;8.990;2024-03-23T09:53:45;8.37;;;2.77;;
12110;SDS011;6119;52.372;8.990;2024-03-23T09:56:29;3.83;;;2.57;;
12110;SDS011;6119;52.372;8.990;2024-03-23T09:59:15;7.43;;;2.40;;
12110;SDS011;6119;52.372;8.990;2024-03-23T10:02:00;13.27;;;3.43;;
12110;SDS011;6119;52.372;8.990;2024-03-23T10:04:47;12.93;;;2.80;;
12110;SDS011;6119;52.372;8.990;2024-03-23T10:07:33;6.67;;;3.13;;
12110;SDS011;6119;52.372;8.990;2024-03-23T10:10:19;8.60;;;2.90;;
12110;SDS011;6119;52.372;8.990;2024-03-23T10:13:05;9.83;;;3.10;;
12110;SDS011;6119;52.372;8.990;2024-03-23T10:15:54;5.77;;;2.87;;
12110;SDS011;6119;52.372;8.990;2024-03-23T10:18:40;8.53;;;3.20;;
12110;SDS011;6119;52.372;8.990;2024-03-23T10:21:26;10.23;;;3.87;;
12110;SDS011;6119;52.372;8.990;2024-03-23T10:24:12;10.50;;;3.07;;
12110;SDS011;6119;52.372;8.990;2024-03-23T10:26:59;4.63;;;2.83;;
12110;SDS011;6119;52.372;8.990;2024-03-23T10:29:44;8.17;;;2.60;;
12110;SDS011;6119;52.372;8.990;2024-03-23T10:32:29;6.77;;;3.10;;
12110;SDS011;6119;52.372;8.990;2024-03-23T10:35:15;7.77;;;3.03;;
12110;SDS011;6119;52.372;8.990;2024-03-23T10:38:04;5.77;;;1.97;;
12110;SDS011;6119;52.372;8.990;2024-03-23T10:40:55;5.70;;;1.83;;
12110;SDS011;6119;52.372;8.990;2024-03-23T10:43:42;6.47;;;2.50;;
12110;SDS011;6119;52.372;8.990;2024-03-23T10:46:29;11.77;;;6.73;;
12110;SDS011;6119;52.372;8.990;2024-03-23T10:49:16;2.43;;;1.40;;
12110;SDS011;6119;52.372;8.990;2024-03-23T10:52:02;7.50;;;2.00;;
12110;SDS011;6119;52.372;8.990;2024-03-23T10:54:48;33.23;;;8.50;;
12110;SDS011;6119;52.372;8.990;2024-03-23T10:57:38;1.80;;;1.20;;
12110;SDS011;6119;52.372;8.990;2024-03-23T11:00:27;2.47;;;1.20;;
12110;SDS011;6119;52.372;8.990;2024-03-23T11:09:38;2.77;;;1.13;;
12110;SDS011;6119;52.372;8.990;2024-03-23T11:12:28;3.50;;;1.20;;
12110;SDS011;6119;52.372;8.990;2024-03-23T11:15:17;1.43;;;0.70;;
12110;SDS011;6119;52.372;8.990;2024-03-23T11:18:03;1.70;;;1.20;;
12110;SDS011;6119;52.372;8.990;2024-03-23T11:20:48;3.07;;;1.60;;
12110;SDS011;6119;52.372;8.990;2024-03-23T11:23:34;3.53;;;1.70;;
12110;SDS011;6119;52.372;8.990;2024-03-23T11:26:19;4.67;;;1.50;;
12110;SDS011;6119;52.372;8.990;2024-03-23T11:29:08;4.37;;;1.80;;
12110;SDS011;6119;52.372;8.990;2024-03-23T11:31:55;6.90;;;1.73;;
12110;SDS011;6119;52.372;8.990;2024-03-23T11:34:42;2.40;;;1.60;;
12110;SDS011;6119;52.372;8.990;2024-03-23T11:37:26;2.50;;;1.73;;
12110;SDS011;6119;52.372;8.990;2024-03-23T11:40:18;5.87;;;1.70;;
12110;SDS011;6119;52.372;8.990;2024-03-23T11:43:04;5.20;;;1.73;;
12110;SDS011;6119;52.372;8.990;2024-03-23T11:45:51;2.83;;;2.00;;
12110;SDS011;6119;52.372;8.990;2024-03-23T11:48:40;6.07;;;1.70;;
12110;SDS011;6119;52.372;8.990;2024-03-23T11:51:25;3.53;;;1.60;;
12110;SDS011;6119;52.372;8.990;2024-03-23T11:54:11;4.43;;;2.00;;
12110;SDS011;6119;52.372;8.990;2024-03-23T11:56:56;3.80;;;2.53;;
12110;SDS011;6119;52.372;8.990;2024-03-23T11:59:42;5.10;;;2.23;;
12110;SDS011;6119;52.372;8.990;2024-03-23T12:02:28;3.03;;;1.93;;
12110;SDS011;6119;52.372;8.990;2024-03-23T12:05:15;1.77;;;1.60;;
12110;SDS011;6119;52.372;8.990;2024-03-23T12:08:20;2.83;;;1.70;;
12110;SDS011;6119;52.372;8.990;2024-03-23T12:11:07;2.40;;;1.47;;
12110;SDS011;6119;52.372;8.990;2024-03-23T12:13:55;3.87;;;2.30;;
12110;SDS011;6119;52.372;8.990;2024-03-23T12:16:44;4.53;;;2.87;;
12110;SDS011;6119;52.372;8.990;2024-03-23T12:19:29;5.70;;;3.47;;
12110;SDS011;6119;52.372;8.990;2024-03-23T12:22:15;4.97;;;2.17;;
12110;SDS011;6119;52.372;8.990;2024-03-23T12:25:06;4.03;;;2.30;;
12110;SDS011;6119;52.372;8.990;2024-03-23T12:27:51;4.37;;;2.60;;
12110;SDS011;6119;52.372;8.990;2024-03-23T12:30:38;2.53;;;1.80;;
12110;SDS011;6119;52.372;8.990;2024-03-23T12:33:23;3.73;;;1.33;;
12110;SDS011;6119;52.372;8.990;2024-03-23T12:36:09;2.13;;;1.07;;
12110;SDS011;6119;52.372;8.990;2024-03-23T12:38:55;1.33;;;1.00;;
12110;SDS011;6119;52.372;8.990;2024-03-23T12:41:41;1.47;;;1.00;;
12110;SDS011;6119;52.372;8.990;2024-03-23T12:44:26;2.93;;;1.10;;
12110;SDS011;6119;52.372;8.990;2024-03-23T12:47:12;1.37;;;1.10;;
12110;SDS011;6119;52.372;8.990;2024-03-23T12:49:57;4.17;;;1.63;;
12110;SDS011;6119;52.372;8.990;2024-03-23T12:52:43;1.30;;;1.10;;
12110;SDS011;6119;52.372;8.990;2024-03-23T12:55:29;0.80;;;0.80;;
12110;SDS011;6119;52.372;8.990;2024-03-23T12:58:15;2.30;;;1.37;;
12110;SDS011;6119;52.372;8.990;2024-03-23T13:01:00;2.90;;;1.20;;
12110;SDS011;6119;52.372;8.990;2024-03-23T13:03:46;1.33;;;1.03;;
12110;SDS011;6119;52.372;8.990;2024-03-23T13:06:31;3.23;;;1.20;;
12110;SDS011;6119;52.372;8.990;2024-03-23T13:09:18;1.73;;;1.20;;
12110;SDS011;6119;52.372;8.990;2024-03-23T13:12:05;1.70;;;1.30;;
12110;SDS011;6119;52.372;8.990;2024-03-23T13:14:52;1.27;;;0.90;;
12110;SDS011;6119;52.372;8.990;2024-03-23T13:17:36;2.17;;;1.20;;
12110;SDS011;6119;52.372;8.990;2024-03-23T13:20:22;4.37;;;1.40;;
12110;SDS011;6119;52.372;8.990;2024-03-23T13:23:07;2.60;;;1.10;;
12110;SDS011;6119;52.372;8.990;2024-03-23T13:25:53;3.53;;;1.40;;
12110;SDS011;6119;52.372;8.990;2024-03-23T13:28:41;4.40;;;1.10;;
12110;SDS011;6119;52.372;8.990;2024-03-23T13:31:26;3.43;;;1.30;;
12110;SDS011;6119;52.372;8.990;2024-03-23T13:34:11;3.57;;;1.30;;
12110;SDS011;6119;52.372;8.990;2024-03-23T13:36:59;3.40;;;1.03;;
12110;SDS011;6119;52.372;8.990;2024-03-23T13:39:44;2.03;;;0.90;;
12110;SDS011;6119;52.372;8.990;2024-03-23T13:42:30;1.77;;;1.10;;
12110;SDS011;6119;52.372;8.990;2024-03-23T13:45:15;1.30;;;0.90;;
12110;SDS011;6119;52.372;8.990;2024-03-23T13:48:01;2.33;;;0.80;;
12110;SDS011;6119;52.372;8.990;2024-03-23T13:50:47;1.20;;;1.10;;
12110;SDS011;6119;52.372;8.990;2024-03-23T13:53:41;1.80;;;1.13;;
12110;SDS011;6119;52.372;8.990;2024-03-23T13:56:26;1.43;;;0.80;;
12110;SDS011;6119;52.372;8.990;2024-03-23T13:59:13;1.03;;;0.50;;
12110;SDS011;6119;52.372;8.990;2024-03-23T14:01:59;2.30;;;0.90;;
12110;SDS011;6119;52.372;8.990;2024-03-23T14:04:45;0.53;;;0.47;;
12110;SDS011;6119;52.372;8.990;2024-03-23T14:07:30;1.20;;;0.33;;
12110;SDS011;6119;52.372;8.990;2024-03-23T14:10:15;1.47;;;1.20;;
12110;SDS011;6119;52.372;8.990;2024-03-23T14:13:00;2.50;;;0.90;;
12110;SDS011;6119;52.372;8.990;2024-03-23T14:15:48;1.03;;;0.50;;
12110;SDS011;6119;52.372;8.990;2024-03-23T14:18:38;1.77;;;0.47;;
12110;SDS011;6119;52.372;8.990;2024-03-23T14:21:24;1.03;;;0.70;;
12110;SDS011;6119;52.372;8.990;2024-03-23T14:24:09;1.70;;;0.90;;
12110;SDS011;6119;52.372;8.990;2024-03-23T14:26:55;2.60;;;0.90;;
12110;SDS011;6119;52.372;8.990;2024-03-23T14:29:39;1.73;;;1.00;;
12110;SDS011;6119;52.372;8.990;2024-03-23T14:32:25;1.20;;;1.10;;
12110;SDS011;6119;52.372;8.990;2024-03-23T14:35:11;1.23;;;0.87;;
12110;SDS011;6119;52.372;8.990;2024-03-23T14:37:57;2.80;;;0.90;;
12110;SDS011;6119;52.372;8.990;2024-03-23T14:40:42;5.07;;;1.10;;
12110;SDS011;6119;52.372;8.990;2024-03-23T14:43:28;1.90;;;1.07;;
12110;SDS011;6119;52.372;8.990;2024-03-23T14:46:13;2.43;;;0.97;;
12110;SDS011;6119;52.372;8.990;2024-03-23T14:48:59;2.43;;;1.20;;
12110;SDS011;6119;52.372;8.990;2024-03-23T14:51:47;6.77;;;1.70;;
12110;SDS011;6119;52.372;8.990;2024-03-23T14:54:31;2.47;;;1.10;;
12110;SDS011;6119;52.372;8.990;2024-03-23T14:57:21;5.17;;;1.20;;
12110;SDS011;6119;52.372;8.990;2024-03-23T15:00:06;4.50;;;2.60;;
12110;SDS011;6119;52.372;8.990;2024-03-23T15:02:55;1.27;;;0.80;;
12110;SDS011;6119;52.372;8.990;2024-03-23T15:05:41;2.40;;;1.30;;
12110;SDS011;6119;52.372;8.990;2024-03-23T15:08:28;1.80;;;1.10;;
12110;SDS011;6119;52.372;8.990;2024-03-23T15:11:15;4.63;;;1.20;;
12110;SDS011;6119;52.372;8.990;2024-03-23T15:14:02;2.67;;;1.23;;
12110;SDS011;6119;52.372;8.990;2024-03-23T15:16:50;4.17;;;1.23;;
12110;SDS011;6119;52.372;8.990;2024-03-23T15:19:42;3.70;;;0.90;;
12110;SDS011;6119;52.372;8.990;2024-03-23T15:22:28;1.57;;;1.00;;
12110;SDS011;6119;52.372;8.990;2024-03-23T15:25:17;5.00;;;1.30;;
12110;SDS011;6119;52.372;8.990;2024-03-23T15:28:08;2.60;;;0.93;;
12110;SDS011;6119;52.372;8.990;2024-03-23T15:30:57;3.73;;;1.03;;
12110;SDS011;6119;52.372;8.990;2024-03-23T15:33:44;1.13;;;0.60;;
12110;SDS011;6119;52.372;8.990;2024-03-23T15:36:29;3.30;;;0.50;;
12110;SDS011;6119;52.372;8.990;2024-03-23T15:39:14;4.60;;;1.30;;
12110;SDS011;6119;52.372;8.990;2024-03-23T15:42:01;2.27;;;0.90;;
12110;SDS011;6119;52.372;8.990;2024-03-23T15:44:48;2.87;;;1.33;;
12110;SDS011;6119;52.372;8.990;2024-03-23T15:47:35;2.10;;;0.70;;
12110;SDS011;6119;52.372;8.990;2024-03-23T15:50:21;2.50;;;1.00;;
12110;SDS011;6119;52.372;8.990;2024-03-23T15:53:06;1.07;;;0.70;;
12110;SDS011;6119;52.372;8.990;2024-03-23T15:55:55;3.63;;;1.30;;
12110;SDS011;6119;52.372;8.990;2024-03-23T15:58:42;2.67;;;0.80;;
12110;SDS011;6119;52.372;8.990;2024-03-23T16:01:28;2.83;;;0.70;;
12110;SDS011;6119;52.372;8.990;2024-03-23T16:04:17;2.20;;;1.03;;
12110;SDS011;6119;52.372;8.990;2024-03-23T16:07:03;2.67;;;1.50;;
12110;SDS011;6119;52.372;8.990;2024-03-23T16:09:48;3.03;;;0.90;;
12110;SDS011;6119;52.372;8.990;2024-03-23T16:12:34;1.57;;;1.03;;
12110;SDS011;6119;52.372;8.990;2024-03-23T16:15:21;3.30;;;1.00;;
12110;SDS011;6119;52.372;8.990;2024-03-23T16:18:09;1.77;;;1.10;;
12110;SDS011;6119;52.372;8.990;2024-03-23T16:20:54;1.40;;;1.00;;
12110;SDS011;6119;52.372;8.990;2024-03-23T16:23:48;5.87;;;1.30;;
12110;SDS011;6119;52.372;8.990;2024-03-23T16:26:33;1.80;;;0.90;;
12110;SDS011;6119;52.372;8.990;2024-03-23T16:29:19;5.17;;;1.40;;
12110;SDS011;6119;52.372;8.990;2024-03-23T16:32:05;3.27;;;1.30;;
12110;SDS011;6119;52.372;8.990;2024-03-23T16:34:51;6.20;;;1.30;;
12110;SDS011;6119;52.372;8.990;2024-03-23T16:37:37;1.43;;;1.00;;
12110;SDS011;6119;52.372;8.990;2024-03-23T16:40:23;3.77;;;1.33;;
12110;SDS011;6119;52.372;8.990;2024-03-23T16:43:10;2.50;;;0.83;;
12110;SDS011;6119;52.372;8.990;2024-03-23T16:45:56;2.63;;;1.17;;
12110;SDS011;6119;52.372;8.990;2024-03-23T16:48:48;2.20;;;1.23;;
12110;SDS011;6119;52.372;8.990;2024-03-23T16:51:33;2.50;;;1.17;;
12110;SDS011;6119;52.372;8.990;2024-03-23T16:54:19;7.10;;;1.80;;
12110;SDS011;6119;52.372;8.990;2024-03-23T16:57:04;7.57;;;3.20;;
12110;SDS011;6119;52.372;8.990;2024-03-23T16:59:50;2.90;;;1.20;;
12110;SDS011;6119;52.372;8.990;2024-03-23T17:02:36;3.03;;;1.30;;
12110;SDS011;6119;52.372;8.990;2024-03-23T17:05:25;2.97;;;1.20;;
12110;SDS011;6119;52.372;8.990;2024-03-23T17:08:10;2.20;;;0.97;;
12110;SDS011;6119;52.372;8.990;2024-03-23T17:10:57;3.13;;;1.27;;
12110;SDS011;6119;52.372;8.990;2024-03-23T17:13:44;3.20;;;1.93;;
12110;SDS011;6119;52.372;8.990;2024-03-23T17:16:34;1.70;;;1.60;;
12110;SDS011;6119;52.372;8.990;2024-03-23T17:19:20;3.13;;;1.50;;
12110;SDS011;6119;52.372;8.990;2024-03-23T17:22:08;4.83;;;1.47;;
12110;SDS011;6119;52.372;8.990;2024-03-23T17:24:53;1.27;;;0.97;;
12110;SDS011;6119;52.372;8.990;2024-03-23T17:27:41;4.70;;;1.50;;
12110;SDS011;6119;52.372;8.990;2024-03-23T17:30:26;5.57;;;3.37;;
12110;SDS011;6119;52.372;8.990;2024-03-23T17:33:12;15.33;;;7.70;;
12110;SDS011;6119;52.372;8.990;2024-03-23T17:35:57;6.90;;;4.53;;
12110;SDS011;6119;52.372;8.990;2024-03-23T17:38:49;3.50;;;1.97;;
12110;SDS011;6119;52.372;8.990;2024-03-23T17:41:34;2.00;;;1.63;;
12110;SDS011;6119;52.372;8.990;2024-03-23T17:44:21;1.93;;;1.60;;
12110;SDS011;6119;52.372;8.990;2024-03-23T17:47:06;3.73;;;2.00;;